Time;durP1;ratioP1;P1;durP2;ratioP2;P2;SDS_P1;SDS_P2;PMS_P1;PMS_P2;Temp;Humidity;BMP_temperature;BMP_pressure;BME280_temperature;BME280_humidity;BME280_pressure;Samples;Min_cycle;Max_cycle;Signal;HPM_P1;HPM_P2
2022/10/12 00:01:45;;;;;;;18.00;8.32;;;;;;;4.86;93.69;102257.53;5064698;28;20036;-72
2022/10/12 00:04:11;;;;;;;15.57;7.93;;;;;;;4.81;93.27;102260.34;5059681;28;20032;-72
2022/10/12 00:06:36;;;;;;;19.95;9.60;;;;;;;4.77;93.65;102258.84;5063013;28;20033;-72
2022/10/12 00:09:02;;;;;;;16.92;8.27;;;;;;;4.76;93.74;102254.63;5046732;28;20037;-73
2022/10/12 00:11:28;;;;;;;21.38;7.97;;;;;;;4.73;93.74;102259.09;5045883;28;20036;-72
2022/10/12 00:13:55;;;;;;;15.20;7.75;;;;;;;4.71;93.89;102258.34;5064774;28;20043;-72
2022/10/12 00:16:22;;;;;;;20.65;9.30;;;;;;;4.65;93.98;102251.78;5063654;28;20036;-73
2022/10/12 00:18:55;;;;;;;16.33;8.98;;;;;;;4.61;93.55;102253.69;5064480;28;20036;-72
2022/10/12 00:21:21;;;;;;;23.58;9.77;;;;;;;4.57;93.79;102251.38;5049907;28;20040;-72
2022/10/12 00:23:47;;;;;;;20.63;9.18;;;;;;;4.54;94.33;102252.38;5061148;28;20123;-72
2022/10/12 00:26:18;;;;;;;19.83;9.57;;;;;;;4.52;94.24;102250.78;5063323;28;20107;-72
2022/10/12 00:28:44;;;;;;;20.83;9.30;;;;;;;4.48;94.33;102250.97;5078581;28;20427;-72
2022/10/12 00:31:16;;;;;;;15.15;9.15;;;;;;;4.48;94.65;102256.09;5063854;28;20036;-72
2022/10/12 00:33:42;;;;;;;17.98;10.30;;;;;;;4.44;94.57;102252.00;5064154;28;20029;-72
2022/10/12 00:36:30;;;;;;;19.77;9.57;;;;;;;4.44;94.87;102258.91;5091752;28;20041;-72
2022/10/12 00:38:56;;;;;;;21.23;10.57;;;;;;;4.43;94.64;102252.94;5071728;28;20029;-72
2022/10/12 00:41:27;;;;;;;21.30;9.90;;;;;;;4.46;94.55;102259.63;5060984;28;20542;-72
2022/10/12 00:43:53;;;;;;;19.55;8.35;;;;;;;4.48;94.66;102262.97;5095521;27;20036;-72
2022/10/12 00:46:30;;;;;;;15.70;8.85;;;;;;;4.44;94.25;102258.91;5061634;28;20508;-72
2022/10/12 00:49:11;;;;;;;19.13;8.88;;;;;;;4.40;93.87;102254.84;5056292;28;20162;-72
2022/10/12 00:51:40;;;;;;;20.83;9.27;;;;;;;4.35;94.02;102252.53;5063168;28;20032;-72
2022/10/12 00:54:11;;;;;;;23.50;9.25;;;;;;;4.31;94.32;102252.75;5061418;28;20174;-72
2022/10/12 00:56:39;;;;;;;20.90;9.15;;;;;;;4.28;94.64;102262.25;5061998;28;20047;-72
2022/10/12 00:59:09;;;;;;;17.88;9.15;;;;;;;4.27;94.47;102254.63;5065663;28;20036;-72
2022/10/12 01:01:37;;;;;;;17.13;9.40;;;;;;;4.28;94.78;102257.13;5092812;28;20055;-72
2022/10/12 01:04:05;;;;;;;19.95;9.48;;;;;;;4.32;94.67;102250.09;5053423;28;20029;-72
2022/10/12 01:06:31;;;;;;;19.10;8.73;;;;;;;4.36;94.36;102250.78;5058869;28;20055;-72
2022/10/12 01:08:57;;;;;;;17.83;8.93;;;;;;;4.35;93.95;102244.81;5054369;28;20063;-72
2022/10/12 01:11:22;;;;;;;22.65;8.60;;;;;;;4.35;94.30;102249.94;5063968;28;20029;-72
2022/10/12 01:13:47;;;;;;;21.55;9.25;;;;;;;4.33;93.77;102249.16;5059313;28;20478;-72
2022/10/12 01:16:24;;;;;;;17.92;9.45;;;;;;;4.31;94.47;102245.03;5051630;28;20507;-72
2022/10/12 01:18:56;;;;;;;16.60;8.35;;;;;;;4.24;94.68;102245.38;5091752;28;20043;-72
2022/10/12 01:21:22;;;;;;;19.48;8.63;;;;;;;4.18;94.38;102247.41;5064736;28;20112;-72
2022/10/12 01:24:16;;;;;;;19.15;9.18;;;;;;;4.14;94.31;102238.22;5055429;28;20120;-72
2022/10/12 01:26:47;;;;;;;;;;;;;;;4.13;94.98;102239.13;5064469;28;20545;-72
2022/10/12 01:29:21;;;;;;;21.50;10.05;;;;;;;4.11;94.67;102236.63;5054500;28;19996;-72
2022/10/12 01:31:54;;;;;;;18.15;8.80;;;;;;;4.07;94.63;102233.41;5056572;28;20028;-72
2022/10/12 01:34:29;;;;;;;18.08;9.05;;;;;;;4.04;94.80;102227.59;5045142;28;20036;-72
2022/10/12 01:37:14;;;;;;;18.52;9.80;;;;;;;4.00;94.44;102226.91;5064073;28;20078;-72
2022/10/12 01:39:50;;;;;;;17.33;9.65;;;;;;;3.98;94.98;102231.28;5056900;28;20047;-72
2022/10/12 01:42:22;;;;;;;18.05;8.93;;;;;;;3.97;94.86;102224.47;5057539;28;20078;-72
2022/10/12 01:44:47;;;;;;;17.85;9.23;;;;;;;3.98;95.13;102227.91;5051852;28;20039;-72
2022/10/12 01:47:13;;;;;;;20.20;9.25;;;;;;;3.95;95.38;102222.91;5042186;28;20029;-72
2022/10/12 01:49:38;;;;;;;19.50;9.13;;;;;;;3.92;94.87;102230.75;5057700;28;20035;-72
2022/10/12 01:52:29;;;;;;;19.38;8.75;;;;;;;3.93;95.07;102232.44;5057902;28;20029;-72
2022/10/12 01:55:01;;;;;;;16.85;9.27;;;;;;;3.90;94.76;102225.72;5051551;28;20051;-72
2022/10/12 01:57:38;;;;;;;19.02;8.85;;;;;;;3.92;94.67;102223.06;5056492;28;20045;-72
2022/10/12 02:00:06;;;;;;;17.73;8.20;;;;;;;3.92;94.89;102221.34;5055951;28;20441;-72
2022/10/12 02:02:40;;;;;;;16.38;8.63;;;;;;;3.91;95.11;102222.25;5060193;28;20393;-72
2022/10/12 02:05:08;;;;;;;21.60;9.32;;;;;;;3.89;95.26;102224.06;5056779;28;20505;-72
2022/10/12 02:07:44;;;;;;;21.17;10.35;;;;;;;3.83;94.60;102224.38;5055140;28;20044;-72
2022/10/12 02:10:20;;;;;;;16.73;8.40;;;;;;;3.78;94.83;102224.59;5050552;28;20033;-72
2022/10/12 02:12:48;;;;;;;16.85;9.52;;;;;;;3.75;94.93;102217.06;5050772;28;20028;-72
2022/10/12 02:15:16;;;;;;;17.30;9.25;;;;;;;3.72;95.27;102213.81;5059473;28;20044;-72
2022/10/12 02:17:46;;;;;;;19.77;8.90;;;;;;;3.67;95.40;102220.00;5060439;28;20036;-72
2022/10/12 02:20:15;;;;;;;17.88;8.82;;;;;;;3.64;95.71;102220.16;5058914;28;20071;-72
2022/10/12 02:22:45;;;;;;;21.67;8.82;;;;;;;3.64;95.71;102209.91;5074953;28;20031;-72
2022/10/12 02:25:13;;;;;;;15.35;8.68;;;;;;;3.63;95.97;102209.97;5044694;28;20694;-72
2022/10/12 02:27:43;;;;;;;18.40;8.57;;;;;;;3.61;96.28;102207.47;5063080;28;20048;-72
2022/10/12 02:30:10;;;;;;;18.05;9.35;;;;;;;3.64;96.50;102203.94;5054393;28;20032;-72
2022/10/12 02:32:42;;;;;;;17.20;8.63;;;;;;;3.65;96.41;102196.16;5061051;28;20040;-72
2022/10/12 02:35:34;;;;;;;14.48;8.27;;;;;;;3.65;96.07;102200.44;5057456;28;20066;-72
2022/10/12 02:38:08;;;;;;;15.52;8.50;;;;;;;3.65;96.28;102203.03;5060978;28;20087;-72
2022/10/12 02:40:47;;;;;;;17.42;8.90;;;;;;;3.64;96.30;102194.50;5056885;28;20036;-72
2022/10/12 02:43:20;;;;;;;16.73;8.38;;;;;;;3.65;96.69;102182.50;5058885;28;20280;-72
2022/10/12 02:45:47;;;;;;;;;;;;;;;3.65;96.25;102191.00;5057961;28;20043;-73
2022/10/12 02:48:17;;;;;;;16.73;8.43;;;;;;;3.66;96.16;102184.16;5054468;28;20568;-72
2022/10/12 02:50:44;;;;;;;14.73;8.15;;;;;;;3.68;96.26;102180.59;5065505;28;20056;-72
2022/10/12 02:53:11;;;;;;;17.60;8.43;;;;;;;3.68;96.36;102180.59;5063037;28;20500;-72
2022/10/12 02:55:46;;;;;;;16.77;8.23;;;;;;;3.66;96.51;102177.28;5062776;28;20049;-72
2022/10/12 02:58:11;;;;;;;15.77;7.65;;;;;;;3.65;96.79;102170.50;5093633;28;20564;-72
2022/10/12 03:00:36;;;;;;;18.63;8.50;;;;;;;3.65;96.59;102173.06;5063100;28;20039;-72
2022/10/12 03:03:02;;;;;;;15.00;8.63;;;;;;;3.66;96.98;102173.91;5061524;28;20478;-73
2022/10/12 03:05:27;;;;;;;15.82;8.25;;;;;;;3.66;97.25;102168.78;5061412;28;20036;-72
2022/10/12 03:07:53;;;;;;;18.90;9.40;;;;;;;3.66;97.10;102168.78;5059688;28;20033;-72
2022/10/12 03:10:18;;;;;;;17.95;9.90;;;;;;;3.67;97.37;102175.53;5062431;28;20032;-73
2022/10/12 03:12:43;;;;;;;21.17;9.07;;;;;;;3.67;96.84;102165.28;5057823;28;20048;-72
2022/10/12 03:15:09;;;;;;;19.73;8.20;;;;;;;3.65;96.80;102159.41;5063445;28;20040;-72
2022/10/12 03:17:34;;;;;;;18.67;9.00;;;;;;;3.63;96.79;102172.31;5066081;28;20039;-73
2022/10/12 03:20:00;;;;;;;18.73;9.20;;;;;;;3.63;97.10;102171.47;5064205;28;20044;-73
2022/10/12 03:22:25;;;;;;;20.45;9.23;;;;;;;3.63;96.91;102172.31;5061063;28;20071;-73
2022/10/12 03:24:51;;;;;;;18.55;8.48;;;;;;;3.63;96.96;102164.59;5061531;28;20082;-73
2022/10/12 03:27:16;;;;;;;15.80;8.63;;;;;;;3.63;97.16;102172.31;5058056;28;20032;-73
2022/10/12 03:29:42;;;;;;;18.73;8.45;;;;;;;3.63;96.68;102174.88;5061022;28;20024;-73
2022/10/12 03:32:07;;;;;;;16.08;7.70;;;;;;;3.62;96.36;102175.78;5064204;28;20032;-73
2022/10/12 03:34:32;;;;;;;16.17;7.50;;;;;;;3.60;96.58;102171.63;5079714;28;20056;-73
2022/10/12 03:36:58;;;;;;;16.85;8.88;;;;;;;3.58;96.94;102170.88;5063159;28;20024;-73
2022/10/12 03:39:23;;;;;;;16.55;8.80;;;;;;;3.55;96.92;102165.91;5058049;28;20064;-73
2022/10/12 03:41:49;;;;;;;19.95;8.65;;;;;;;3.51;96.72;102157.53;5041898;28;20036;-73
2022/10/12 03:44:14;;;;;;;18.45;8.75;;;;;;;3.49;97.38;102160.19;5047523;28;20471;-73
2022/10/12 03:46:40;;;;;;;15.20;9.07;;;;;;;3.49;97.85;102160.19;5066369;28;20616;-73
2022/10/12 03:49:05;;;;;;;17.88;8.73;;;;;;;3.49;97.47;102162.75;5061500;28;20036;-73
2022/10/12 03:51:31;;;;;;;18.98;8.73;;;;;;;3.50;97.06;102158.44;5063998;28;20036;-73
2022/10/12 03:53:56;;;;;;;18.27;8.77;;;;;;;3.51;97.53;102158.38;5050552;28;20036;-73
2022/10/12 03:56:21;;;;;;;19.15;9.20;;;;;;;3.52;97.16;102148.94;5058716;28;20040;-73
2022/10/12 03:58:47;;;;;;;19.05;8.52;;;;;;;3.51;97.52;102152.41;5063082;28;20032;-73
2022/10/12 04:01:12;;;;;;;21.88;8.68;;;;;;;3.50;97.65;102155.88;5061352;28;20047;-73
2022/10/12 04:03:38;;;;;;;17.52;9.13;;;;;;;3.49;98.14;102156.78;5053068;28;20036;-73
2022/10/12 04:06:03;;;;;;;19.83;9.45;;;;;;;3.50;97.97;102155.88;5057924;28;20040;-73
2022/10/12 04:08:29;;;;;;;21.45;9.75;;;;;;;3.48;98.26;102150.00;5058033;28;20036;-73
2022/10/12 04:10:55;;;;;;;18.52;9.35;;;;;;;3.49;98.14;102151.66;5066389;28;20032;-73
2022/10/12 04:13:20;;;;;;;18.15;9.85;;;;;;;3.49;98.10;102154.22;5056163;28;20053;-73
2022/10/12 04:15:46;;;;;;;22.10;9.38;;;;;;;3.50;97.89;102158.44;5063048;28;20493;-73
2022/10/12 04:18:12;;;;;;;19.33;8.38;;;;;;;3.51;98.29;102157.53;5057423;28;20024;-73
2022/10/12 04:20:37;;;;;;;19.67;8.73;;;;;;;3.51;98.17;102158.38;5064269;28;20452;-73
2022/10/12 04:23:03;;;;;;;16.10;8.63;;;;;;;3.49;98.39;102159.38;5056833;28;20036;-73
2022/10/12 04:25:28;;;;;;;18.48;8.60;;;;;;;3.48;98.42;102155.13;5064084;28;20043;-73
2022/10/12 04:27:53;;;;;;;16.27;8.32;;;;;;;3.48;98.63;102150.84;5060172;28;20090;-73
2022/10/12 04:30:19;;;;;;;20.65;8.50;;;;;;;3.47;98.58;102156.03;5071335;28;20642;-73
2022/10/12 04:32:44;;;;;;;17.48;8.43;;;;;;;3.46;99.12;102159.50;5065674;28;20084;-73
2022/10/12 04:35:10;;;;;;;16.27;8.95;;;;;;;3.45;98.98;102158.69;5066276;28;20040;-73
2022/10/12 04:37:35;;;;;;;18.13;7.25;;;;;;;3.44;99.17;102151.88;5057134;28;20033;-73
2022/10/12 04:40:02;;;;;;;20.13;8.93;;;;;;;3.46;99.23;102154.38;5066582;28;20037;-73
2022/10/12 04:42:27;;;;;;;17.05;7.80;;;;;;;3.48;99.43;102162.81;5059023;28;20040;-73
2022/10/12 04:44:52;;;;;;;16.42;8.05;;;;;;;3.47;99.26;102148.34;5070096;28;20029;-73
2022/10/12 04:47:18;;;;;;;16.88;8.52;;;;;;;3.48;98.95;102160.25;5062038;28;21711;-73
2022/10/12 04:49:43;;;;;;;18.98;8.48;;;;;;;3.47;99.10;102150.91;5044860;28;20469;-73
2022/10/12 04:52:09;;;;;;;15.45;7.43;;;;;;;3.48;98.87;102162.81;5091194;28;20029;-73
2022/10/12 04:54:34;;;;;;;20.63;8.32;;;;;;;3.47;98.71;102149.19;5072540;28;20453;-73
2022/10/12 04:57:00;;;;;;;19.40;8.00;;;;;;;3.47;98.62;102146.59;5074781;28;20032;-73
2022/10/12 04:59:26;;;;;;;23.02;9.57;;;;;;;3.47;98.46;102145.78;5062781;28;20045;-73
2022/10/12 05:01:53;;;;;;;15.73;7.43;;;;;;;3.45;98.28;102147.59;5065072;28;20115;-74
2022/10/12 05:04:19;;;;;;;15.77;8.55;;;;;;;3.43;98.28;102149.41;5064682;28;20131;-74
2022/10/12 05:06:44;;;;;;;20.27;7.78;;;;;;;3.39;98.54;102145.31;5067897;28;20111;-74
2022/10/12 05:09:10;;;;;;;18.70;7.68;;;;;;;3.35;98.51;102141.25;5070113;28;20040;-74
2022/10/12 05:11:35;;;;;;;17.33;7.68;;;;;;;3.29;98.72;102148.34;5061788;28;20037;-73
2022/10/12 05:14:00;;;;;;;21.83;7.53;;;;;;;3.25;98.53;102139.16;5049527;28;20037;-73
2022/10/12 05:16:26;;;;;;;14.23;8.13;;;;;;;3.22;98.93;102136.75;5045142;28;20045;-74
2022/10/12 05:18:51;;;;;;;15.35;8.23;;;;;;;3.21;98.72;102137.66;5064681;28;20028;-74
2022/10/12 05:21:17;;;;;;;16.63;7.95;;;;;;;3.21;99.13;102137.66;5062105;28;20035;-73
2022/10/12 05:23:42;;;;;;;20.02;7.97;;;;;;;3.21;99.04;102137.66;5069517;28;20040;-74
2022/10/12 05:26:08;;;;;;;17.52;7.97;;;;;;;3.20;98.81;102138.56;5065040;28;20024;-74
2022/10/12 05:28:33;;;;;;;17.55;7.75;;;;;;;3.18;98.63;102136.97;5062856;28;20558;-73
2022/10/12 05:30:59;;;;;;;15.43;8.25;;;;;;;3.21;98.47;102139.38;5062346;28;20078;-74
2022/10/12 05:33:24;;;;;;;16.38;7.40;;;;;;;3.19;98.20;102147.16;5065385;28;20024;-74
2022/10/12 05:35:50;;;;;;;12.90;7.38;;;;;;;3.17;98.47;102143.84;5069704;28;20092;-74
2022/10/12 05:38:15;;;;;;;17.63;8.60;;;;;;;3.17;98.28;102148.13;5067896;28;20032;-73
2022/10/12 05:40:42;;;;;;;16.67;8.05;;;;;;;3.14;98.05;102141.41;5069527;28;20029;-74
2022/10/12 05:43:07;;;;;;;14.48;7.32;;;;;;;3.12;98.08;102145.78;5060451;28;20083;-73
2022/10/12 05:45:32;;;;;;;15.68;8.45;;;;;;;3.11;98.16;102144.97;5061555;28;20980;-74
2022/10/12 05:47:58;;;;;;;18.25;8.38;;;;;;;3.10;98.10;102140.72;5067272;28;20615;-74
2022/10/12 05:50:23;;;;;;;18.70;7.43;;;;;;;3.09;97.69;102135.69;5069482;28;20682;-74
2022/10/12 05:52:49;;;;;;;19.30;8.30;;;;;;;3.07;97.91;102135.75;5066493;28;20036;-74
2022/10/12 05:55:14;;;;;;;17.80;8.05;;;;;;;3.05;97.68;102139.28;5059422;28;20086;-74
2022/10/12 05:57:40;;;;;;;16.48;8.38;;;;;;;3.02;97.80;102140.28;5063575;28;20032;-74
2022/10/12 06:00:07;;;;;;;21.58;8.48;;;;;;;2.99;98.02;102147.28;5064175;28;20114;-74
2022/10/12 06:02:35;;;;;;;17.83;8.02;;;;;;;2.95;97.99;102154.28;5063720;28;20706;-73
2022/10/12 06:05:01;;;;;;;16.95;9.13;;;;;;;2.96;97.99;102147.41;5060044;28;20039;-74
2022/10/12 06:07:27;;;;;;;14.68;8.38;;;;;;;2.93;98.07;102141.53;5063098;28;20036;-74
2022/10/12 06:09:53;;;;;;;25.00;8.73;;;;;;;2.93;98.06;102148.41;5060561;28;20028;-74
2022/10/12 06:12:19;;;;;;;20.77;8.43;;;;;;;2.91;98.13;102153.59;5060799;28;20107;-73
2022/10/12 06:14:44;;;;;;;19.77;8.30;;;;;;;2.89;98.16;102157.97;5065930;28;20405;-74
2022/10/12 06:17:10;;;;;;;20.45;8.57;;;;;;;2.86;98.44;102152.16;5043279;28;20042;-73
2022/10/12 06:19:35;;;;;;;20.27;8.65;;;;;;;2.85;98.70;102156.47;5064155;28;20040;-74
2022/10/12 06:22:01;;;;;;;14.77;8.43;;;;;;;2.89;99.00;102145.16;5065404;28;20032;-74
2022/10/12 06:24:26;;;;;;;14.57;8.15;;;;;;;2.97;99.23;102159.34;5079327;28;20041;-74
2022/10/12 06:26:52;;;;;;;18.90;8.27;;;;;;;3.01;99.20;102159.09;5065046;28;20040;-74
2022/10/12 06:29:18;;;;;;;17.02;8.05;;;;;;;3.06;99.19;102164.03;5061949;28;20044;-74
2022/10/12 06:31:44;;;;;;;16.42;8.07;;;;;;;3.10;99.29;102157.84;5061583;28;20078;-74
2022/10/12 06:34:09;;;;;;;19.30;8.27;;;;;;;3.14;99.31;102158.53;5058856;28;20064;-74
2022/10/12 06:36:34;;;;;;;22.77;8.13;;;;;;;3.18;99.70;102160.84;5057874;28;20032;-73
2022/10/12 06:39:00;;;;;;;15.23;7.57;;;;;;;3.23;99.89;102158.09;5062799;28;20029;-74
2022/10/12 06:41:26;;;;;;;15.48;7.72;;;;;;;3.28;99.54;102166.38;5062997;28;20045;-73
2022/10/12 06:43:51;;;;;;;14.57;7.25;;;;;;;3.33;99.80;102161.03;5058401;28;20035;-74
2022/10/12 06:46:17;;;;;;;22.58;8.80;;;;;;;3.39;99.92;102160.72;5055908;28;20607;-73
2022/10/12 06:48:42;;;;;;;13.05;7.35;;;;;;;3.47;100.00;102156.88;5057898;28;20040;-73
2022/10/12 06:51:07;;;;;;;17.63;7.45;;;;;;;3.55;100.00;102156.47;5054638;28;20029;-73
2022/10/12 06:53:33;;;;;;;15.52;7.05;;;;;;;3.63;100.00;102151.78;5060334;28;20052;-73
2022/10/12 06:56:04;;;;;;;15.48;7.15;;;;;;;3.74;100.00;102153.00;5061895;28;20032;-72
2022/10/12 06:58:30;;;;;;;14.38;6.75;;;;;;;3.85;100.00;102143.81;5057476;28;20033;-73
2022/10/12 07:00:55;;;;;;;24.15;8.18;;;;;;;4.05;100.00;102144.50;5046130;28;20151;-73
2022/10/12 07:03:21;;;;;;;21.65;8.15;;;;;;;4.61;100.00;102144.94;5051155;28;20040;-74
2022/10/12 07:05:46;;;;;;;22.77;8.85;;;;;;;5.17;100.00;102143.50;5059563;28;20045;-73
2022/10/12 07:08:12;;;;;;;16.05;8.25;;;;;;;5.76;100.00;102130.63;5055624;28;20037;-73
2022/10/12 07:10:37;;;;;;;17.13;7.50;;;;;;;6.23;100.00;102139.84;5059099;28;20090;-73
2022/10/12 07:13:03;;;;;;;22.38;8.43;;;;;;;6.71;98.19;102133.44;5059897;28;20112;-73
2022/10/12 07:15:29;;;;;;;21.55;7.68;;;;;;;7.13;95.29;102129.81;5056184;28;20041;-73
2022/10/12 07:17:54;;;;;;;16.75;6.78;;;;;;;7.51;92.74;102128.19;5060145;28;20033;-72
2022/10/12 07:20:20;;;;;;;18.20;7.30;;;;;;;7.62;90.54;102130.88;5057178;28;20032;-73
2022/10/12 07:22:46;;;;;;;18.02;6.95;;;;;;;7.80;89.26;102131.38;5057806;28;20079;-73
2022/10/12 07:25:11;;;;;;;18.20;6.78;;;;;;;7.79;88.86;102132.31;5057338;28;20604;-73
2022/10/12 07:27:37;;;;;;;18.40;7.53;;;;;;;7.68;89.01;102134.78;5055767;28;20032;-73
2022/10/12 07:30:03;;;;;;;15.50;6.65;;;;;;;7.38;90.93;102126.44;5044493;28;20033;-72
2022/10/12 07:32:28;;;;;;;15.35;6.10;;;;;;;7.32;91.90;102128.59;5058238;28;20036;-72
2022/10/12 07:34:54;;;;;;;19.00;6.30;;;;;;;7.63;91.03;102139.44;5063679;28;20539;-72
2022/10/12 07:37:19;;;;;;;14.60;6.65;;;;;;;7.63;90.56;102139.44;5062502;28;20036;-73
2022/10/12 07:39:45;;;;;;;12.88;6.03;;;;;;;7.82;90.64;102133.84;5054253;28;20047;-74
2022/10/12 07:42:10;;;;;;;14.65;6.60;;;;;;;8.33;89.23;102137.16;5056153;28;20037;-73
2022/10/12 07:44:35;;;;;;;14.65;6.68;;;;;;;8.89;86.50;102138.38;5063645;28;20033;-73
2022/10/12 07:47:01;;;;;;;18.63;6.20;;;;;;;9.43;84.57;102136.97;5065189;28;20044;-73
2022/10/12 07:49:26;;;;;;;18.25;7.80;;;;;;;9.87;82.13;102143.09;5047581;28;20037;-74
2022/10/12 07:51:52;;;;;;;15.32;7.22;;;;;;;10.08;80.29;102133.69;5064796;28;20544;-74
2022/10/12 07:54:17;;;;;;;18.88;7.00;;;;;;;10.18;79.54;102132.97;5062217;28;20053;-77
2022/10/12 07:56:43;;;;;;;14.75;6.35;;;;;;;10.28;78.30;102139.06;5066686;28;20090;-75
2022/10/12 07:59:08;;;;;;;18.88;6.68;;;;;;;10.42;78.63;102135.41;5055106;28;20045;-75
2022/10/12 08:01:34;;;;;;;13.15;5.78;;;;;;;10.48;78.35;102130.53;5062187;28;20041;-76
2022/10/12 08:04:00;;;;;;;20.35;6.35;;;;;;;10.80;77.71;102131.50;5063319;28;20033;-74
2022/10/12 08:06:28;;;;;;;12.45;5.53;;;;;;;10.97;77.56;102128.34;5090894;28;20031;-75
2022/10/12 08:08:54;;;;;;;15.13;5.68;;;;;;;10.86;77.06;102123.19;5059006;28;20413;-75
2022/10/12 08:11:20;;;;;;;13.60;5.20;;;;;;;10.46;76.18;102124.66;5060387;28;20036;-76
2022/10/12 08:13:47;;;;;;;17.13;5.25;;;;;;;10.05;78.87;102130.50;5064528;28;20083;-75
2022/10/12 08:16:15;;;;;;;13.95;5.82;;;;;;;9.91;80.46;102124.63;5060956;28;20401;-75
2022/10/12 08:18:41;;;;;;;14.85;5.10;;;;;;;10.06;79.70;102120.03;5061466;28;20119;-78
2022/10/12 08:21:09;;;;;;;14.07;5.57;;;;;;;10.25;79.09;102121.97;5063694;28;20112;-76
2022/10/12 08:23:35;;;;;;;14.57;6.68;;;;;;;10.58;77.60;102119.44;5060661;28;20489;-75
2022/10/12 08:26:01;;;;;;;12.52;4.80;;;;;;;11.25;76.96;102121.69;5060086;28;20037;-75
2022/10/12 08:28:27;;;;;;;21.63;6.43;;;;;;;11.90;73.28;102112.81;5092506;28;20418;-75
2022/10/12 08:30:53;;;;;;;22.52;6.55;;;;;;;12.35;71.38;102112.34;5068021;28;20028;-76
2022/10/12 08:33:18;;;;;;;14.32;5.90;;;;;;;11.77;71.43;102102.63;5055123;28;20021;-76
2022/10/12 08:35:45;;;;;;;10.90;5.00;;;;;;;12.01;71.21;102104.91;5053601;28;20404;-78
2022/10/12 08:38:11;;;;;;;15.38;5.18;;;;;;;12.19;69.66;102100.72;5062801;28;20052;-79
2022/10/12 08:40:45;;;;;;;22.67;4.53;;;;;;;12.02;69.75;102107.38;5046589;28;20051;-77
2022/10/12 08:43:33;;;;;;;19.20;4.72;;;;;;;11.73;71.28;102115.06;5058854;28;20032;-78
2022/10/12 08:46:02;;;;;;;16.05;5.50;;;;;;;11.87;70.97;102106.91;5059064;28;20040;-79
2022/10/12 08:48:40;;;;;;;14.55;5.97;;;;;;;11.20;73.46;102105.66;5060833;28;20029;-77
2022/10/12 08:51:09;;;;;;;14.50;5.20;;;;;;;10.98;75.08;102110.97;5063423;28;20036;-80
2022/10/12 08:53:42;;;;;;;16.38;5.43;;;;;;;10.58;77.05;102114.25;5071255;28;20020;-77
2022/10/12 08:56:08;;;;;;;16.45;5.68;;;;;;;10.44;77.67;102120.56;5060608;28;20040;-79
2022/10/12 08:58:38;;;;;;;16.73;5.85;;;;;;;10.35;77.79;102122.09;5063058;28;20028;-77
2022/10/12 09:01:37;;;;;;;17.33;5.70;;;;;;;10.44;77.75;102123.97;5063016;28;20143;-77
2022/10/12 09:04:34;;;;;;;18.92;6.45;;;;;;;10.31;79.11;102133.66;5069793;28;20656;-77
2022/10/12 09:07:18;;;;;;;20.08;7.13;;;;;;;10.30;78.00;102134.56;5061331;28;20268;-77
2022/10/12 09:10:19;;;;;;;17.70;6.45;;;;;;;10.14;79.31;102137.56;5061641;28;20152;-79
2022/10/12 09:12:57;;;;;;;19.73;6.95;;;;;;;10.09;79.85;102129.31;5055008;28;20542;-79
2022/10/12 09:15:27;;;;;;;20.40;7.15;;;;;;;10.25;80.22;102134.13;5044971;28;20035;-78
2022/10/12 09:17:55;;;;;;;20.33;6.00;;;;;;;10.49;79.98;102136.53;5066801;28;20033;-80
2022/10/12 09:20:40;;;;;;;17.05;6.60;;;;;;;10.80;79.41;102141.88;5058660;28;20024;-77
2022/10/12 09:23:14;;;;;;;14.13;7.07;;;;;;;10.95;77.96;102135.44;5054728;28;20028;-76
2022/10/12 09:25:41;;;;;;;27.10;7.22;;;;;;;10.84;78.50;102138.06;5066421;28;20044;-77
2022/10/12 09:28:26;;;;;;;20.77;7.18;;;;;;;11.00;78.37;102137.63;5067799;28;20036;-78
2022/10/12 09:31:26;;;;;;;23.63;7.30;;;;;;;10.88;76.72;102139.47;5047708;28;20036;-77
2022/10/12 09:34:04;;;;;;;22.48;7.82;;;;;;;10.54;79.99;102134.41;5030779;28;20040;-81
2022/10/12 09:36:35;;;;;;;24.65;7.80;;;;;;;10.84;79.85;102131.09;5059219;28;20036;-81
2022/10/12 09:39:11;;;;;;;19.98;8.35;;;;;;;11.04;78.67;102126.88;5062129;28;20032;-80
2022/10/12 09:41:40;;;;;;;28.55;8.48;;;;;;;11.12;77.90;102126.25;5051319;28;20039;-78
2022/10/12 09:44:11;;;;;;;22.30;7.75;;;;;;;11.10;78.07;102123.78;5066635;28;20479;-78
2022/10/12 09:46:41;;;;;;;15.65;6.78;;;;;;;10.94;77.00;102117.38;5060462;28;20040;-78
2022/10/12 09:49:07;;;;;;;16.35;7.53;;;;;;;10.93;77.79;102113.97;5061198;28;20032;-79
2022/10/12 09:51:33;;;;;;;22.45;7.85;;;;;;;10.76;77.68;102110.16;5063392;28;20166;-78
2022/10/12 09:54:04;;;;;;;17.48;9.13;;;;;;;10.67;78.76;102109.13;5059954;28;20025;-78
2022/10/12 09:56:43;;;;;;;19.02;7.30;;;;;;;10.73;78.27;102109.59;5061911;28;20089;-79
2022/10/12 09:59:43;;;;;;;17.35;7.63;;;;;;;10.81;78.94;102109.78;5054950;28;20059;-79
2022/10/12 10:02:09;;;;;;;20.05;7.45;;;;;;;10.99;77.08;102108.28;5078872;28;20029;-79
2022/10/12 10:04:36;;;;;;;28.58;8.70;;;;;;;10.96;77.71;102111.09;5043686;28;20114;-77
2022/10/12 10:07:32;;;;;;;19.33;7.88;;;;;;;11.04;77.53;102116.50;5062018;28;20029;-80
2022/10/12 10:10:20;;;;;;;17.67;8.10;;;;;;;11.27;77.42;102111.16;5048009;28;20123;-80
2022/10/12 10:13:04;;;;;;;19.98;8.10;;;;;;;11.12;77.85;102117.66;5060377;28;20532;-80
2022/10/12 10:15:37;;;;;;;15.95;8.98;;;;;;;11.30;78.50;102118.69;5046263;28;20055;-78
2022/10/12 10:18:20;;;;;;;20.10;8.05;;;;;;;11.43;77.65;102118.47;5050373;28;20035;-77
2022/10/12 10:20:54;;;;;;;23.80;9.00;;;;;;;11.38;77.22;102118.88;5063481;28;20047;-81
2022/10/12 10:23:29;;;;;;;22.45;8.95;;;;;;;11.67;77.87;102113.00;5075574;28;20090;-79
2022/10/12 10:26:03;;;;;;;15.82;8.15;;;;;;;11.78;77.49;102119.88;5055625;28;20397;-79
2022/10/12 10:28:31;;;;;;;18.83;7.65;;;;;;;11.72;77.36;102121.22;5078574;28;20481;-78
2022/10/12 10:31:01;;;;;;;26.10;8.57;;;;;;;11.92;76.93;102116.09;5039945;28;20086;-79
2022/10/12 10:33:27;;;;;;;15.73;7.30;;;;;;;12.07;75.00;102114.78;5060660;28;20032;-81
2022/10/12 10:36:16;;;;;;;24.73;8.02;;;;;;;11.99;74.15;102109.44;5074006;28;20031;-79
2022/10/12 10:39:36;;;;;;;19.45;7.70;;;;;;;12.13;75.50;102109.06;5053709;28;20044;-78
2022/10/12 10:42:17;;;;;;;20.42;6.68;;;;;;;12.08;75.19;102108.63;5034195;28;20085;-78
2022/10/12 10:44:50;;;;;;;18.65;6.05;;;;;;;12.25;74.16;102107.97;5049889;28;20698;-78
2022/10/12 10:47:16;;;;;;;20.65;7.65;;;;;;;12.41;72.85;102101.41;5084754;28;20398;-79
2022/10/12 10:49:46;;;;;;;18.33;6.40;;;;;;;12.44;74.41;102104.56;5033514;28;20040;-79
2022/10/12 10:52:41;;;;;;;21.10;5.68;;;;;;;12.73;72.40;102100.31;5049723;28;20076;-79
2022/10/12 10:55:09;;;;;;;20.17;5.10;;;;;;;12.95;69.25;102102.59;5045401;28;20053;-81
2022/10/12 10:57:39;;;;;;;21.67;5.07;;;;;;;12.91;68.74;102095.22;5060228;28;20044;-80
2022/10/12 11:00:19;;;;;;;21.52;5.45;;;;;;;12.95;69.75;102089.59;5056553;28;20060;-81
2022/10/12 11:02:52;;;;;;;15.98;5.05;;;;;;;13.04;70.90;102080.94;5065621;28;20216;-80
2022/10/12 11:05:31;;;;;;;18.17;5.45;;;;;;;13.23;67.79;102080.06;5093866;28;20493;-82
2022/10/12 11:08:20;;;;;;;24.75;4.93;;;;;;;13.27;68.47;102070.16;5048057;28;20025;-81
2022/10/12 11:11:07;;;;;;;14.90;4.28;;;;;;;13.35;67.92;102072.09;5063705;28;20063;-81
2022/10/12 11:13:36;;;;;;;21.15;5.55;;;;;;;13.48;66.47;102067.38;5067910;28;20493;-80
2022/10/12 11:16:44;;;;;;;16.80;3.97;;;;;;;13.41;66.72;102071.50;5068108;28;20036;-82
2022/10/12 11:19:31;;;;;;;22.75;3.90;;;;;;;13.46;67.81;102074.50;5041416;28;20056;-78
2022/10/12 11:22:07;;;;;;;16.98;4.40;;;;;;;13.72;65.46;102066.84;5065709;28;20029;-83
2022/10/12 11:24:46;;;;;;;14.77;3.70;;;;;;;13.88;63.80;102057.56;5053446;28;20047;-83
2022/10/12 11:27:18;;;;;;;8.43;3.05;;;;;;;14.12;63.01;102063.00;5065244;28;20032;-81
2022/10/12 11:29:44;;;;;;;9.52;2.92;;;;;;;13.93;64.81;102063.97;5061956;28;20102;-80
2022/10/12 11:32:30;;;;;;;16.85;3.67;;;;;;;13.94;66.08;102057.81;5080068;28;20049;-80
2022/10/12 11:35:02;;;;;;;12.50;3.20;;;;;;;13.91;66.45;102055.47;5063333;28;20028;-81